Time;durP1;ratioP1;P1;durP2;ratioP2;P2;SDS_P1;SDS_P2;PMS_P1;PMS_P2;Temp;Humidity;BMP_temperature;BMP_pressure;BME280_temperature;BME280_humidity;BME280_pressure;Samples;Min_cycle;Max_cycle;Signal;HPM_P1;HPM_P2
2022/05/24 00:00:16;;;;;;;14.07;10.15;;;;;;;18.25;68.83;96123.91;4919942;28;20048;-85
2022/05/24 00:02:42;;;;;;;14.25;9.60;;;;;;;18.31;68.12;96128.69;4915799;28;20050;-85
2022/05/24 00:05:10;;;;;;;11.52;9.70;;;;;;;18.28;67.92;96126.72;4934051;28;20068;-85
2022/05/24 00:07:38;;;;;;;11.93;9.57;;;;;;;18.26;68.18;96125.47;4919922;28;20048;-87
2022/05/24 00:10:06;;;;;;;12.25;9.15;;;;;;;18.24;68.13;96131.06;4918951;28;20701;-87
2022/05/24 00:12:33;;;;;;;13.23;10.02;;;;;;;18.12;68.39;96115.16;4936557;28;20096;-86
2022/05/24 00:17:50;;;;;;;11.88;9.23;;;;;;;18.14;68.74;96131.44;4939063;28;20029;-85
2022/05/24 00:20:17;;;;;;;9.88;8.88;;;;;;;18.21;68.69;96130.94;4935794;28;20109;-85
2022/05/24 00:22:44;;;;;;;12.00;9.38;;;;;;;18.25;68.64;96123.91;4935654;28;20088;-85
2022/05/24 00:25:11;;;;;;;10.13;9.02;;;;;;;18.26;68.52;96128.09;4934580;28;20025;-85
2022/05/24 00:27:37;;;;;;;11.45;8.43;;;;;;;18.24;68.41;96115.25;4935478;28;20022;-85
2022/05/24 00:30:04;;;;;;;14.40;9.48;;;;;;;18.20;68.45;96118.84;4919337;28;20033;-85
2022/05/24 00:32:30;;;;;;;9.77;8.73;;;;;;;18.25;68.71;96116.00;4935252;28;20783;-84
2022/05/24 00:34:56;;;;;;;9.40;8.43;;;;;;;18.21;68.51;96110.63;4904164;28;20105;-85
2022/05/24 00:37:24;;;;;;;10.15;7.18;;;;;;;18.19;68.85;96112.81;4919799;28;20033;-85
2022/05/24 00:39:51;;;;;;;12.07;8.85;;;;;;;18.25;68.26;96106.25;4917783;28;20778;-85
2022/05/24 00:42:21;;;;;;;11.02;8.90;;;;;;;18.18;68.20;96105.22;4919604;28;20029;-84
2022/05/24 00:45:12;;;;;;;15.35;10.15;;;;;;;18.00;68.70;96107.19;4918153;28;20022;-85
2022/05/24 00:47:54;;;;;;;9.27;7.97;;;;;;;18.02;68.96;96103.13;4930265;28;20744;-85
2022/05/24 00:50:25;;;;;;;9.85;8.10;;;;;;;18.05;68.34;96107.00;4915904;28;20069;-85
2022/05/24 00:52:56;;;;;;;10.88;8.75;;;;;;;18.01;68.34;96101.59;4887210;28;20030;-82
2022/05/24 00:55:23;;;;;;;14.25;9.48;;;;;;;18.09;68.31;96107.91;4918895;28;20733;-85
2022/05/24 00:58:16;;;;;;;13.63;9.48;;;;;;;17.88;68.60;96110.50;4918150;28;20038;-85
2022/05/24 01:00:42;;;;;;;11.93;9.40;;;;;;;18.02;68.15;96097.09;4934920;28;20025;-85
2022/05/24 01:03:09;;;;;;;8.85;7.95;;;;;;;17.98;68.04;96099.59;4911507;28;20057;-85
2022/05/24 01:05:35;;;;;;;10.85;9.55;;;;;;;17.92;68.04;96095.59;4900928;28;20068;-85
2022/05/24 01:08:02;;;;;;;10.63;8.25;;;;;;;17.88;67.91;96092.81;4934495;28;20049;-85
2022/05/24 01:10:35;;;;;;;11.10;8.85;;;;;;;17.87;67.99;96103.69;4904027;28;20120;-85
2022/05/24 01:13:12;;;;;;;8.68;7.72;;;;;;;17.70;68.41;96097.38;4917700;28;20034;-85
2022/05/24 01:15:40;;;;;;;8.98;7.80;;;;;;;17.72;68.23;96099.72;4908586;28;20033;-84
2022/05/24 01:18:06;;;;;;;10.90;8.48;;;;;;;17.66;68.02;96096.47;4933596;28;20072;-84
2022/05/24 01:20:32;;;;;;;11.13;8.30;;;;;;;17.57;68.00;96085.22;4917742;28;20054;-85
2022/05/24 01:23:31;;;;;;;11.48;8.60;;;;;;;17.45;68.67;96098.25;4917935;28;20026;-85
2022/05/24 01:26:15;;;;;;;9.52;7.90;;;;;;;17.41;68.36;96098.13;4955154;28;20716;-85
2022/05/24 01:28:50;;;;;;;8.95;8.05;;;;;;;17.57;68.19;96088.59;4963858;28;20704;-85
2022/05/24 01:31:17;;;;;;;11.55;8.98;;;;;;;17.53;67.95;96092.97;4911320;28;20036;-85
2022/05/24 01:36:29;;;;;;;11.18;8.65;;;;;;;17.47;68.20;96098.72;4935445;28;20030;-85
2022/05/24 01:39:00;;;;;;;12.43;9.65;;;;;;;17.44;68.56;96092.22;4933113;28;20116;-85
2022/05/24 01:41:36;;;;;;;12.00;9.38;;;;;;;17.49;68.77;96102.56;4932311;28;20030;-83
2022/05/24 01:44:02;;;;;;;11.45;9.32;;;;;;;17.65;68.37;96087.03;4905053;28;20030;-85
2022/05/24 01:46:33;;;;;;;13.98;10.55;;;;;;;17.59;68.54;96091.69;4916646;28;20107;-85
2022/05/24 01:49:02;;;;;;;12.85;10.52;;;;;;;17.65;68.54;96084.41;4900765;28;20022;-85
2022/05/24 01:51:39;;;;;;;14.35;10.85;;;;;;;17.51;69.17;96078.56;4916813;28;20076;-84
2022/05/24 01:54:06;;;;;;;13.70;10.95;;;;;;;17.68;69.27;96088.25;4930209;28;20747;-84
2022/05/24 01:56:39;;;;;;;16.02;11.80;;;;;;;17.62;69.11;96082.41;4904922;28;20145;-85
2022/05/24 01:59:06;;;;;;;14.52;12.23;;;;;;;17.63;69.65;96081.28;4899657;28;20069;-86
2022/05/24 02:01:41;;;;;;;15.23;11.57;;;;;;;17.69;69.34;96080.03;4930027;28;20840;-84
2022/05/24 02:04:09;;;;;;;14.63;11.45;;;;;;;17.71;69.41;96072.59;4934700;28;20037;-84
2022/05/24 02:06:36;;;;;;;12.15;10.13;;;;;;;17.79;69.66;96082.31;4919941;28;20126;-85
2022/05/24 02:09:04;;;;;;;14.05;11.48;;;;;;;17.79;69.05;96076.28;4952693;28;20975;-84
2022/05/24 02:11:31;;;;;;;15.75;11.48;;;;;;;17.85;69.34;96076.88;4935396;28;20585;-83
2022/05/24 02:14:06;;;;;;;13.52;10.95;;;;;;;17.70;69.87;96065.81;4901374;28;20107;-85
2022/05/24 02:16:34;;;;;;;14.23;11.52;;;;;;;17.89;69.32;96072.53;4937525;28;20063;-85
2022/05/24 02:19:01;;;;;;;25.52;11.88;;;;;;;17.87;69.28;96074.72;4913739;28;20046;-86
2022/05/24 02:21:27;;;;;;;9.90;8.90;;;;;;;17.91;68.90;96050.06;4929704;28;20705;-84
2022/05/24 02:23:52;;;;;;;9.70;8.63;;;;;;;18.02;68.81;96061.00;4928809;28;20102;-85
2022/05/24 02:26:21;;;;;;;9.98;8.85;;;;;;;17.87;68.87;96043.13;4910283;28;20784;-84
2022/05/24 02:28:52;;;;;;;9.82;8.80;;;;;;;17.82;69.02;96038.00;4944469;28;20068;-85
2022/05/24 02:31:19;;;;;;;9.43;8.45;;;;;;;17.74;68.96;96027.19;4924833;28;20053;-84
2022/05/24 02:33:46;;;;;;;8.63;7.55;;;;;;;17.89;68.48;96027.75;4926429;28;20049;-84
2022/05/24 02:36:12;;;;;;;8.10;7.28;;;;;;;17.79;68.66;96037.56;4894423;28;20888;-83
2022/05/24 02:38:37;;;;;;;7.90;7.07;;;;;;;17.77;69.22;96052.91;4897268;28;20032;-87
2022/05/24 02:43:47;;;;;;;7.82;6.43;;;;;;;17.86;69.04;96047.63;4931263;28;20032;-83
2022/05/24 02:46:12;;;;;;;9.43;7.00;;;;;;;17.88;68.77;96052.56;4928575;28;20275;-84
2022/05/24 02:48:38;;;;;;;6.80;6.10;;;;;;;17.85;68.60;96045.28;4896675;28;20061;-85
2022/05/24 02:51:11;;;;;;;6.32;5.63;;;;;;;17.86;69.02;96046.81;4913034;28;20045;-83
2022/05/24 02:53:37;;;;;;;5.45;4.90;;;;;;;17.93;68.34;96057.66;4913941;28;20026;-87
2022/05/24 02:56:04;;;;;;;6.20;5.63;;;;;;;17.78;68.72;96045.75;4928214;28;20029;-84
2022/05/24 02:58:30;;;;;;;8.55;5.25;;;;;;;17.68;69.22;96038.22;4912789;28;20142;-84
2022/05/24 03:00:55;;;;;;;6.75;5.40;;;;;;;17.83;68.47;96044.81;4910908;28;20109;-82
2022/05/24 03:03:20;;;;;;;6.28;5.32;;;;;;;17.72;68.72;96041.78;4906006;28;20048;-84
2022/05/24 03:05:46;;;;;;;5.28;4.78;;;;;;;17.75;68.76;96046.41;4929494;28;20041;-84
2022/05/24 03:10:56;;;;;;;6.78;4.90;;;;;;;17.55;69.18;96053.16;4930917;28;20596;-88
2022/05/24 03:16:10;;;;;;;7.78;5.35;;;;;;;17.22;70.33;96064.25;4935054;28;20782;-86
2022/05/24 03:18:35;;;;;;;8.23;6.32;;;;;;;17.45;69.37;96058.78;4916014;28;20756;-87
2022/05/24 03:21:01;;;;;;;6.13;5.30;;;;;;;17.49;69.24;96054.44;4932475;28;20022;-86
2022/05/24 03:23:26;;;;;;;5.30;4.80;;;;;;;17.55;69.01;96058.44;4931387;28;20026;-85
2022/05/24 03:25:52;;;;;;;5.15;4.53;;;;;;;17.47;68.96;96043.44;4899731;28;20033;-86
2022/05/24 03:28:20;;;;;;;3.70;3.40;;;;;;;17.29;69.30;96056.69;4922855;28;20054;-84
2022/05/24 03:30:49;;;;;;;3.33;2.83;;;;;;;17.27;68.83;96052.81;4916499;28;20030;-83
2022/05/24 03:33:14;;;;;;;2.95;2.75;;;;;;;17.42;68.44;96053.03;4925259;28;20570;-84
2022/05/24 03:35:40;;;;;;;3.60;2.70;;;;;;;17.32;69.06;96045.50;4931240;28;20121;-82
2022/05/24 03:38:06;;;;;;;3.20;2.88;;;;;;;17.38;68.63;96049.50;4929778;28;20034;-84
2022/05/24 03:40:32;;;;;;;2.83;2.53;;;;;;;17.46;68.22;96052.41;4930406;28;20610;-84
2022/05/24 03:42:58;;;;;;;8.43;3.25;;;;;;;17.39;67.99;96058.97;4900028;28;20033;-85
2022/05/24 03:45:24;;;;;;;2.80;2.55;;;;;;;17.39;68.17;96052.91;4915335;28;20606;-86
2022/05/24 03:47:49;;;;;;;3.08;2.17;;;;;;;17.30;68.31;96031.91;4914368;28;20081;-84
2022/05/24 03:50:16;;;;;;;3.10;2.88;;;;;;;17.41;68.05;96053.38;4914540;28;20676;-83
2022/05/24 03:52:41;;;;;;;3.28;2.55;;;;;;;17.28;68.06;96036.72;4930605;28;20657;-85
2022/05/24 03:55:07;;;;;;;3.75;2.17;;;;;;;17.33;68.55;96047.06;4932190;28;20033;-83
2022/05/24 04:00:20;;;;;;;3.05;2.47;;;;;;;17.41;67.84;96054.16;4911782;28;20015;-83
2022/05/24 04:02:45;;;;;;;3.67;2.00;;;;;;;17.47;67.79;96059.25;4936764;28;20041;-84
2022/05/24 04:05:11;;;;;;;3.85;2.53;;;;;;;17.42;68.32;96060.19;4930691;28;20815;-83
2022/05/24 04:07:38;;;;;;;3.33;2.53;;;;;;;17.39;68.20;96064.22;4948533;28;20104;-83
2022/05/24 04:10:05;;;;;;;3.72;2.55;;;;;;;17.46;67.99;96053.22;4932694;28;20097;-83
2022/05/24 04:12:31;;;;;;;2.72;2.45;;;;;;;17.42;67.86;96053.03;4914567;28;20033;-84
2022/05/24 04:14:56;;;;;;;3.05;2.28;;;;;;;17.30;67.95;96057.44;4915483;28;20026;-89
2022/05/24 04:17:21;;;;;;;2.60;2.40;;;;;;;17.27;68.47;96058.81;4913389;28;20030;-85
2022/05/24 04:19:47;;;;;;;3.30;2.83;;;;;;;17.34;67.92;96053.88;4905599;28;20025;-84
2022/05/24 04:22:12;;;;;;;3.25;2.35;;;;;;;17.40;67.97;96068.38;4896558;28;20916;-84
2022/05/24 04:24:38;;;;;;;2.30;2.10;;;;;;;17.45;67.69;96069.31;4929290;28;20681;-86
2022/05/24 04:27:07;;;;;;;2.78;2.30;;;;;;;17.23;68.09;96065.81;4913440;28;20641;-85
2022/05/24 04:29:33;;;;;;;2.50;1.85;;;;;;;17.47;67.13;96065.25;4931265;28;20775;-84
2022/05/24 04:31:58;;;;;;;3.15;2.40;;;;;;;17.44;68.23;96065.88;4930753;28;20030;-84
2022/05/24 04:34:24;;;;;;;2.78;2.50;;;;;;;17.50;67.83;96059.38;4929852;28;20051;-83
2022/05/24 04:36:49;;;;;;;2.97;2.38;;;;;;;17.40;68.52;96062.34;4912754;28;20817;-84
2022/05/24 04:39:16;;;;;;;2.72;2.22;;;;;;;17.47;67.91;96065.25;4946863;28;20796;-87
2022/05/24 04:44:26;;;;;;;3.95;1.92;;;;;;;17.59;67.31;96093.56;4930112;28;20018;-85
2022/05/24 04:47:10;;;;;;;3.05;1.77;;;;;;;17.51;67.77;96104.88;4913818;28;20036;-84
2022/05/24 04:49:46;;;;;;;2.15;1.90;;;;;;;17.28;68.11;96117.50;4917034;28;20128;-84
2022/05/24 04:52:12;;;;;;;1.80;1.10;;;;;;;17.12;68.42;96136.41;4917630;28;20030;-85
2022/05/24 04:54:40;;;;;;;1.33;1.23;;;;;;;17.05;68.63;96141.38;4896879;28;20195;-85
2022/05/24 04:57:06;;;;;;;2.35;1.45;;;;;;;17.18;66.99;96135.13;4923147;28;20116;-85
2022/05/24 04:59:32;;;;;;;2.08;1.40;;;;;;;17.30;67.47;96152.16;4930174;28;20489;-88
2022/05/24 05:01:57;;;;;;;1.92;1.08;;;;;;;17.11;68.17;96157.75;4932260;28;20017;-88
2022/05/24 05:04:24;;;;;;;0.90;0.60;;;;;;;16.91;68.16;96157.28;4917725;28;20037;-87
2022/05/24 05:06:50;;;;;;;0.85;0.80;;;;;;;17.11;67.13;96155.88;4948832;28;20035;-85
2022/05/24 05:09:16;;;;;;;1.77;1.02;;;;;;;17.27;67.80;96171.94;4934678;28;20702;-85
2022/05/24 05:11:41;;;;;;;1.30;0.80;;;;;;;17.29;66.70;96177.69;4916312;28;20022;-86
2022/05/24 05:14:08;;;;;;;1.00;0.90;;;;;;;17.23;68.22;96178.94;4898360;28;20030;-86
2022/05/24 05:16:33;;;;;;;3.03;0.70;;;;;;;17.26;67.50;96167.03;4913746;28;20034;-83
2022/05/24 05:18:59;;;;;;;1.35;0.77;;;;;;;17.37;66.77;96168.22;4930181;28;20029;-85
2022/05/24 05:21:32;;;;;;;0.88;0.77;;;;;;;17.25;66.39;96168.09;4913813;28;20142;-87
2022/05/24 05:23:58;;;;;;;0.50;0.50;;;;;;;17.14;66.61;96175.56;4928859;28;20125;-85
2022/05/24 05:26:23;;;;;;;1.90;0.70;;;;;;;17.22;66.35;96174.75;4912865;28;20716;-87
2022/05/24 05:28:49;;;;;;;1.70;0.60;;;;;;;17.31;67.21;96180.78;4929376;28;20021;-85
2022/05/24 05:31:17;;;;;;;1.13;0.80;;;;;;;17.27;66.97;96184.34;4913252;28;20113;-86
2022/05/24 05:33:47;;;;;;;0.80;0.70;;;;;;;17.27;67.23;96174.59;4928897;28;20790;-85
2022/05/24 05:36:14;;;;;;;0.77;0.60;;;;;;;17.32;67.00;96182.31;4929684;28;20045;-84
2022/05/24 05:38:45;;;;;;;1.15;0.70;;;;;;;17.18;66.40;96182.50;4945125;28;20022;-83
2022/05/24 05:41:11;;;;;;;0.65;0.65;;;;;;;17.19;66.49;96180.66;4936265;28;20807;-84
2022/05/24 05:43:37;;;;;;;0.80;0.80;;;;;;;17.20;65.51;96187.44;4908724;28;20034;-87
2022/05/24 05:46:03;;;;;;;0.68;0.50;;;;;;;17.40;65.71;96212.34;4898951;28;20064;-85
2022/05/24 05:48:29;;;;;;;1.65;0.70;;;;;;;17.45;65.36;96208.78;4912735;28;20740;-87
2022/05/24 05:50:55;;;;;;;2.00;0.75;;;;;;;17.38;64.71;96217.16;4899060;28;20021;-85
2022/05/24 05:53:20;;;;;;;1.45;0.80;;;;;;;17.46;66.27;96236.63;4914081;28;20664;-84
2022/05/24 05:55:46;;;;;;;1.02;0.60;;;;;;;17.39;65.82;96251.06;4898885;28;20088;-86
2022/05/24 05:58:11;;;;;;;1.38;0.90;;;;;;;17.45;66.81;96248.25;4928787;28;20026;-86
2022/05/24 06:00:38;;;;;;;1.48;0.77;;;;;;;17.46;66.80;96258.47;4894947;28;20308;-85
2022/05/24 06:03:04;;;;;;;1.92;1.20;;;;;;;17.46;65.49;96265.56;4898221;28;20030;-84
2022/05/24 06:05:30;;;;;;;3.25;1.10;;;;;;;17.38;66.64;96264.50;4927689;28;20148;-85
2022/05/24 06:07:56;;;;;;;1.92;1.13;;;;;;;17.15;65.47;96272.56;4897351;28;20022;-89
2022/05/24 06:10:22;;;;;;;2.58;0.88;;;;;;;17.20;65.73;96279.50;4930576;28;20029;-85
2022/05/24 06:12:48;;;;;;;0.90;0.70;;;;;;;17.28;65.46;96291.91;4927598;28;20260;-86
2022/05/24 06:15:13;;;;;;;1.70;1.00;;;;;;;17.11;65.31;96279.50;4938329;28;20712;-85
2022/05/24 06:17:46;;;;;;;1.95;0.90;;;;;;;17.04;65.87;96293.09;4930800;28;20104;-86
2022/05/24 06:20:12;;;;;;;1.98;1.00;;;;;;;17.11;65.56;96295.28;4913808;28;20084;-86
2022/05/24 06:22:37;;;;;;;1.77;0.95;;;;;;;17.09;66.17;96288.81;4929797;28;20033;-86
2022/05/24 06:25:04;;;;;;;1.08;0.95;;;;;;;17.05;66.48;96286.00;4913608;28;20858;-86
2022/05/24 06:27:29;;;;;;;1.30;0.98;;;;;;;17.00;66.61;96294.81;4918094;28;20022;-86
2022/05/24 06:29:55;;;;;;;2.17;1.10;;;;;;;16.87;65.77;96292.31;4908753;28;20018;-86
2022/05/24 06:32:20;;;;;;;1.55;1.42;;;;;;;17.05;65.87;96304.44;4894708;28;20030;-85
2022/05/24 06:34:48;;;;;;;1.58;1.10;;;;;;;16.93;66.86;96301.59;4894280;28;20702;-84
2022/05/24 06:37:17;;;;;;;1.65;1.00;;;;;;;17.09;67.11;96281.69;4894756;28;20080;-85
2022/05/24 06:39:43;;;;;;;1.70;1.17;;;;;;;17.39;65.69;96303.69;4909064;28;20854;-85
2022/05/24 06:42:08;;;;;;;1.33;1.23;;;;;;;17.31;66.36;96317.59;4910168;28;20061;-86
2022/05/24 06:44:34;;;;;;;1.02;0.85;;;;;;;17.34;64.96;96330.16;4905256;28;20029;-86
2022/05/24 06:46:59;;;;;;;1.30;1.08;;;;;;;17.17;65.81;96324.84;4901133;28;20073;-86
2022/05/24 06:49:24;;;;;;;2.40;1.00;;;;;;;17.05;67.35;96330.72;4925640;28;20116;-86
2022/05/24 06:51:50;;;;;;;1.05;0.93;;;;;;;16.97;65.77;96323.59;4918391;28;20041;-84
2022/05/24 06:54:15;;;;;;;2.45;1.23;;;;;;;17.17;67.08;96330.91;4933764;28;20030;-84
2022/05/24 06:56:41;;;;;;;1.38;1.15;;;;;;;17.60;66.11;96329.38;4901361;28;20112;-86
2022/05/24 07:04:34;;;;;;;1.10;0.63;;;;;;;17.72;62.67;96334.78;4934768;28;20045;-85
2022/05/24 07:06:59;;;;;;;1.45;0.73;;;;;;;17.84;63.64;96328.09;4917218;28;20033;-85
2022/05/24 07:09:29;;;;;;;1.30;0.88;;;;;;;18.13;63.66;96346.69;4936585;28;20036;-85
2022/05/24 07:11:55;;;;;;;0.90;0.73;;;;;;;18.20;62.40;96340.94;4920695;28;20099;-85
2022/05/24 07:14:20;;;;;;;2.15;0.70;;;;;;;18.26;63.13;96331.00;4942336;28;20294;-86
2022/05/24 07:16:45;;;;;;;1.10;1.00;;;;;;;18.25;63.83;96332.06;4916332;28;20061;-85
2022/05/24 07:19:11;;;;;;;1.27;0.65;;;;;;;18.50;63.30;96339.13;4898715;28;20026;-84
2022/05/24 07:21:36;;;;;;;0.80;0.80;;;;;;;18.58;62.87;96349.97;4916725;28;20224;-86
2022/05/24 07:24:02;;;;;;;2.65;0.88;;;;;;;18.70;62.05;96350.09;4932321;28;20091;-86
2022/05/24 07:26:27;;;;;;;2.15;0.57;;;;;;;18.74;61.66;96344.94;4914527;28;20030;-85
2022/05/24 07:28:52;;;;;;;0.73;0.50;;;;;;;18.38;61.15;96348.81;4919122;28;20022;-86
2022/05/24 07:31:18;;;;;;;0.65;0.65;;;;;;;18.17;63.17;96356.59;4916624;28;20041;-85
2022/05/24 07:33:43;;;;;;;1.20;0.63;;;;;;;18.00;60.82;96352.13;4916590;28;20018;-86
2022/05/24 07:36:09;;;;;;;1.10;0.50;;;;;;;17.97;59.83;96366.69;4931779;28;20057;-86
2022/05/24 07:38:34;;;;;;;1.35;0.77;;;;;;;17.89;61.83;96372.72;4911329;28;20112;-86
2022/05/24 07:46:33;;;;;;;2.30;0.68;;;;;;;17.96;60.65;96370.44;4937653;28;20731;-83
2022/05/24 07:49:04;;;;;;;0.70;0.52;;;;;;;17.85;60.30;96375.19;4918166;28;20038;-84
2022/05/24 07:51:34;;;;;;;1.55;0.70;;;;;;;17.96;60.49;96378.34;4935568;28;20712;-86
2022/05/24 07:54:03;;;;;;;1.17;1.10;;;;;;;18.00;61.29;96381.88;4920670;28;20736;-85
2022/05/24 07:56:33;;;;;;;1.17;0.60;;;;;;;17.83;62.52;96384.50;4919426;28;20040;-85
2022/05/24 07:59:02;;;;;;;0.68;0.63;;;;;;;17.88;59.42;96376.47;4906885;28;20032;-84
2022/05/24 08:01:29;;;;;;;0.75;0.75;;;;;;;17.88;60.88;96387.78;4918793;28;20026;-85
2022/05/24 08:03:59;;;;;;;2.50;0.82;;;;;;;17.63;62.10;96381.38;4898890;28;20197;-85
2022/05/24 08:06:29;;;;;;;1.42;0.90;;;;;;;17.40;63.74;96401.81;4932757;28;20069;-84
2022/05/24 08:08:58;;;;;;;0.82;0.82;;;;;;;17.56;62.56;96407.41;4915352;28;20019;-85
2022/05/24 08:11:28;;;;;;;1.85;0.95;;;;;;;17.60;64.12;96403.09;4916285;28;20030;-85
2022/05/24 08:13:58;;;;;;;1.83;0.90;;;;;;;17.63;62.57;96402.44;4905327;28;20022;-85
2022/05/24 08:16:28;;;;;;;1.13;0.98;;;;;;;17.71;59.55;96404.31;4914891;28;20030;-85
2022/05/24 08:18:58;;;;;;;1.08;0.85;;;;;;;17.86;59.52;96416.28;4916838;28;20038;-84
2022/05/24 08:21:27;;;;;;;1.08;0.70;;;;;;;17.79;60.11;96419.34;4885164;28;20624;-83
2022/05/24 08:23:57;;;;;;;0.80;0.80;;;;;;;17.82;59.62;96422.44;4916845;28;20030;-86
2022/05/24 08:26:24;;;;;;;1.58;0.80;;;;;;;17.72;61.71;96426.94;4899771;28;20036;-83
2022/05/24 08:28:50;;;;;;;1.58;0.80;;;;;;;17.68;61.63;96425.22;4946356;28;20108;-86
2022/05/24 08:31:17;;;;;;;1.48;0.63;;;;;;;17.69;63.15;96459.13;4932977;28;20026;-83
2022/05/24 08:33:44;;;;;;;1.52;1.00;;;;;;;17.55;63.30;96438.22;4905925;28;20029;-84
2022/05/24 08:36:12;;;;;;;0.73;0.73;;;;;;;17.61;63.84;96454.63;4934077;28;20026;-85
2022/05/24 08:38:39;;;;;;;2.05;0.90;;;;;;;17.77;63.70;96441.81;4920464;28;20057;-83
2022/05/24 08:41:11;;;;;;;1.55;1.00;;;;;;;18.15;62.87;96459.66;4932355;28;20030;-83
2022/05/24 08:43:46;;;;;;;1.50;0.88;;;;;;;18.42;61.96;96452.50;4915853;28;20710;-82
2022/05/24 08:49:03;;;;;;;1.85;1.00;;;;;;;18.81;63.59;96451.47;4932414;28;19910;-83
2022/05/24 08:51:37;;;;;;;2.58;0.70;;;;;;;19.04;60.49;96451.28;4931314;28;20037;-83
2022/05/24 08:54:10;;;;;;;1.33;0.82;;;;;;;18.90;58.60;96448.84;4929409;28;20037;-82
2022/05/24 08:56:55;;;;;;;1.15;0.70;;;;;;;18.86;56.35;96450.56;4932673;28;20022;-83
2022/05/24 08:59:26;;;;;;;1.75;0.70;;;;;;;19.23;56.19;96451.66;4929614;28;20022;-82
2022/05/24 09:01:52;;;;;;;0.80;0.80;;;;;;;19.28;55.41;96469.19;4935729;28;20723;-83
2022/05/24 09:04:18;;;;;;;1.63;0.90;;;;;;;19.15;55.58;96473.59;4915782;28;20034;-81
2022/05/24 09:06:56;;;;;;;1.45;0.60;;;;;;;18.92;53.76;96474.91;4896123;28;20117;-83
2022/05/24 09:09:24;;;;;;;1.25;1.00;;;;;;;18.54;54.48;96484.25;4927765;28;20256;-82
2022/05/24 09:12:16;;;;;;;4.20;0.70;;;;;;;18.16;55.67;96482.28;4909824;28;20714;-83
2022/05/24 09:15:06;;;;;;;1.42;0.80;;;;;;;18.00;54.44;96479.34;4900019;28;20121;-79
2022/05/24 09:17:53;;;;;;;2.47;0.75;;;;;;;17.90;55.81;96484.91;4911816;28;20061;-81
2022/05/24 09:20:24;;;;;;;1.50;0.70;;;;;;;17.88;55.49;96487.84;4939673;28;20030;-82
2022/05/24 09:22:53;;;;;;;1.30;0.60;;;;;;;18.37;56.59;96485.09;4920672;28;20099;-82
2022/05/24 09:25:19;;;;;;;3.17;0.65;;;;;;;18.88;54.14;96482.69;4890024;28;20864;-82
2022/05/24 09:27:53;;;;;;;1.63;0.90;;;;;;;18.93;55.30;96482.50;4897174;28;20112;-82
2022/05/24 09:30:30;;;;;;;1.42;1.23;;;;;;;18.71;55.85;96486.09;4892193;28;20780;-82
2022/05/24 09:33:18;;;;;;;1.15;0.55;;;;;;;18.70;54.64;96489.84;4925021;28;20057;-82
2022/05/24 09:35:44;;;;;;;2.65;1.10;;;;;;;18.71;57.01;96478.97;4910422;28;20766;-81
2022/05/24 09:38:16;;;;;;;2.33;0.70;;;;;;;18.67;53.94;96482.56;4907558;28;20419;-80
2022/05/24 09:40:58;;;;;;;1.40;1.02;;;;;;;18.89;52.26;96479.72;4930470;28;20056;-80
2022/05/24 09:43:34;;;;;;;1.38;0.73;;;;;;;19.17;52.51;96481.94;4918485;28;20088;-82
2022/05/24 09:46:05;;;;;;;1.33;0.52;;;;;;;19.31;52.09;96480.97;4871813;28;20117;-81
2022/05/24 09:48:33;;;;;;;1.38;1.00;;;;;;;19.18;52.85;96491.44;4921587;28;20115;-81
2022/05/24 09:51:00;;;;;;;2.03;0.70;;;;;;;19.28;51.65;96492.94;4920219;28;20045;-82
2022/05/24 09:53:31;;;;;;;0.68;0.50;;;;;;;19.36;49.87;96492.13;4916474;28;20735;-80
2022/05/24 09:56:01;;;;;;;0.70;0.52;;;;;;;19.56;50.85;96490.63;4905176;28;20737;-80
2022/05/24 09:58:36;;;;;;;1.73;0.73;;;;;;;19.72;50.11;96498.00;4922763;28;20030;-79
2022/05/24 10:01:01;;;;;;;3.72;0.82;;;;;;;20.06;52.97;96493.63;4921239;28;20056;-82
2022/05/24 10:03:29;;;;;;;1.08;0.50;;;;;;;20.39;50.75;96491.78;4910840;28;20040;-82
2022/05/24 10:06:02;;;;;;;2.88;0.80;;;;;;;20.26;50.48;96495.47;4907478;28;20125;-79
2022/05/24 10:08:28;;;;;;;1.77;0.57;;;;;;;20.41;49.63;96494.13;4918814;28;20087;-80
2022/05/24 10:10:57;;;;;;;1.05;0.65;;;;;;;20.46;51.29;96493.13;4937338;28;20933;-81
2022/05/24 10:13:31;;;;;;;1.45;0.60;;;;;;;20.45;48.93;96500.28;4920952;28;20084;-80
2022/05/24 10:16:04;;;;;;;1.30;0.70;;;;;;;19.89;50.42;96502.44;4902951;28;20799;-82
2022/05/24 10:18:45;;;;;;;0.82;0.50;;;;;;;20.22;50.70;96507.81;4920222;28;20045;-79
2022/05/24 10:21:27;;;;;;;1.08;0.70;;;;;;;20.36;46.81;96503.00;4936125;28;20824;-79
2022/05/24 10:24:48;;;;;;;0.50;0.47;;;;;;;20.79;45.56;96503.75;4921685;28;20092;-80
2022/05/24 10:27:23;;;;;;;0.65;0.60;;;;;;;21.55;47.31;96496.34;4911169;28;20782;-80
2022/05/24 10:29:54;;;;;;;1.88;0.80;;;;;;;21.91;44.83;96501.94;4938834;28;20033;-78
2022/05/24 10:39:05;;;;;;;1.33;0.60;;;;;;;21.24;46.30;96510.88;4931800;28;20122;-78
2022/05/24 10:42:06;;;;;;;0.70;0.70;;;;;;;20.87;48.51;96523.25;4939295;28;20037;-79
2022/05/24 10:44:44;;;;;;;0.65;0.50;;;;;;;20.78;43.10;96528.63;4896581;28;20030;-80
2022/05/24 10:47:18;;;;;;;1.25;0.40;;;;;;;20.15;44.19;96528.66;4919169;28;20034;-80
2022/05/24 10:50:05;;;;;;;0.88;0.50;;;;;;;20.57;44.31;96541.88;4919476;28;20037;-79
2022/05/24 10:52:50;;;;;;;0.60;0.40;;;;;;;21.00;43.36;96540.72;4936318;28;20060;-79
2022/05/24 11:06:42;;;;;;;0.80;0.60;;;;;;;22.00;42.10;96521.13;4911100;28;20243;-81
2022/05/24 11:09:18;;;;;;;0.70;0.40;;;;;;;22.23;41.07;96526.72;4890886;28;20226;-80
2022/05/24 11:11:49;;;;;;;1.33;0.60;;;;;;;22.05;37.05;96526.19;4914102;28;20180;-80
2022/05/24 11:14:35;;;;;;;0.30;0.30;;;;;;;22.03;37.47;96525.75;4887256;28;20218;-81
2022/05/24 11:17:01;;;;;;;1.73;0.35;;;;;;;21.97;39.94;96524.44;4894131;28;20309;-79
2022/05/24 11:19:31;;;;;;;0.30;0.30;;;;;;;21.67;38.36;96516.75;4904138;28;20577;-79
2022/05/24 11:22:15;;;;;;;0.75;0.50;;;;;;;21.77;39.61;96518.19;4890531;28;20165;-82
2022/05/24 11:24:56;;;;;;;0.98;0.43;;;;;;;21.86;44.72;96521.47;4900208;28;20274;-81
2022/05/24 11:27:32;;;;;;;1.10;0.40;;;;;;;22.03;41.76;96520.47;4889625;28;20211;-80
2022/05/24 11:30:13;;;;;;;1.15;0.35;;;;;;;22.07;41.33;96523.97;4891928;28;20291;-81
2022/05/24 11:32:46;;;;;;;0.40;0.40;;;;;;;22.02;41.85;96525.00;4892509;28;20198;-79
2022/05/24 11:35:52;;;;;;;0.85;0.40;;;;;;;21.85;39.96;96535.84;4910236;28;20164;-80
2022/05/24 11:38:24;;;;;;;3.22;0.50;;;;;;;22.07;40.12;96545.97;4892428;28;20342;-80
2022/05/24 11:41:03;;;;;;;0.60;0.60;;;;;;;21.50;39.66;96536.28;4893362;28;20286;-79
2022/05/24 11:43:35;;;;;;;1.90;0.60;;;;;;;21.27;43.13;96534.03;4909709;28;20238;-80
2022/05/24 11:46:08;;;;;;;1.38;0.40;;;;;;;21.25;41.96;96530.16;4893181;28;20289;-81
2022/05/24 11:48:46;;;;;;;1.77;0.50;;;;;;;21.41;42.81;96527.66;4893517;28;20292;-79
2022/05/24 11:51:36;;;;;;;0.98;0.55;;;;;;;20.84;43.81;96522.06;4893095;28;20190;-80
2022/05/24 11:54:03;;;;;;;3.38;0.55;;;;;;;21.41;43.15;96522.38;4908604;28;20243;-80
2022/05/24 11:56:29;;;;;;;3.13;0.50;;;;;;;21.39;42.95;96519.28;4893946;28;20666;-79
2022/05/24 11:59:00;;;;;;;0.82;0.30;;;;;;;21.37;42.09;96538.13;4892504;28;20282;-79
2022/05/24 12:01:43;;;;;;;2.40;0.60;;;;;;;21.47;40.02;96521.84;4889305;28;20185;-81
2022/05/24 12:10:05;;;;;;;0.90;0.32;;;;;;;22.31;41.69;96539.09;4910923;28;20280;-80
2022/05/24 12:12:34;;;;;;;0.52;0.40;;;;;;;22.31;40.04;96546.25;4908774;28;20217;-80
2022/05/24 12:15:13;;;;;;;1.13;0.43;;;;;;;22.13;39.42;96545.75;4907881;28;20661;-79
2022/05/24 12:17:39;;;;;;;3.67;0.50;;;;;;;22.15;38.48;96538.97;4891927;28;20210;-80
2022/05/24 12:20:25;;;;;;;2.25;0.50;;;;;;;21.79;43.17;96548.53;4892013;28;20201;-80
2022/05/24 12:23:06;;;;;;;1.65;0.70;;;;;;;21.65;39.16;96548.09;4908091;28;20277;-80
2022/05/24 12:25:50;;;;;;;0.98;0.60;;;;;;;21.64;39.46;96544.69;4910521;28;20293;-79
2022/05/24 12:28:15;;;;;;;1.33;0.50;;;;;;;21.59;39.50;96544.13;4890343;28;20184;-80
2022/05/24 12:30:43;;;;;;;1.05;0.55;;;;;;;21.57;40.78;96551.63;4908180;28;20215;-81
2022/05/24 12:33:34;;;;;;;1.02;0.40;;;;;;;21.59;40.47;96544.91;4891566;28;20203;-80
2022/05/24 12:36:06;;;;;;;0.60;0.47;;;;;;;21.79;40.87;96542.47;4896694;28;20261;-81
2022/05/24 12:38:33;;;;;;;1.70;0.50;;;;;;;22.05;41.50;96548.19;4892428;28;20822;-79
2022/05/24 12:41:14;;;;;;;1.10;0.40;;;;;;;21.95;42.06;96550.50;4906949;28;20197;-82